sensor_id;sensor_type;location;lat;lon;timestamp;P1;durP1;ratioP1;P2;durP2;ratioP2
47381;SDS011;33128;51.580;5.170;2023-04-25T00:01:03;562.65;;;505.55;;
47381;SDS011;33128;51.580;5.170;2023-04-25T00:03:33;593.20;;;536.42;;
47381;SDS011;33128;51.580;5.170;2023-04-25T00:06:00;614.90;;;555.63;;
47381;SDS011;33128;51.580;5.170;2023-04-25T00:08:27;705.53;;;643.70;;
47381;SDS011;33128;51.580;5.170;2023-04-25T00:10:56;704.40;;;641.95;;
47381;SDS011;33128;51.580;5.170;2023-04-25T00:13:22;666.85;;;603.55;;
47381;SDS011;33128;51.580;5.170;2023-04-25T00:15:48;676.35;;;615.50;;
47381;SDS011;33128;51.580;5.170;2023-04-25T00:18:14;661.85;;;601.20;;
47381;SDS011;33128;51.580;5.170;2023-04-25T00:20:40;559.72;;;502.52;;
47381;SDS011;33128;51.580;5.170;2023-04-25T00:23:09;673.72;;;612.47;;
47381;SDS011;33128;51.580;5.170;2023-04-25T00:25:35;577.75;;;519.88;;
47381;SDS011;33128;51.580;5.170;2023-04-25T00:28:00;558.50;;;501.85;;
47381;SDS011;33128;51.580;5.170;2023-04-25T00:30:26;656.60;;;596.92;;
47381;SDS011;33128;51.580;5.170;2023-04-25T00:32:52;679.10;;;617.88;;
47381;SDS011;33128;51.580;5.170;2023-04-25T00:35:18;673.17;;;612.25;;
47381;SDS011;33128;51.580;5.170;2023-04-25T00:37:43;636.45;;;577.88;;
47381;SDS011;33128;51.580;5.170;2023-04-25T00:40:09;628.97;;;570.72;;
47381;SDS011;33128;51.580;5.170;2023-04-25T00:42:35;617.83;;;559.97;;
47381;SDS011;33128;51.580;5.170;2023-04-25T00:45:02;562.33;;;505.85;;
47381;SDS011;33128;51.580;5.170;2023-04-25T00:47:30;594.90;;;538.15;;
47381;SDS011;33128;51.580;5.170;2023-04-25T00:49:57;594.92;;;538.03;;
47381;SDS011;33128;51.580;5.170;2023-04-25T00:52:23;645.50;;;585.80;;
47381;SDS011;33128;51.580;5.170;2023-04-25T00:54:49;613.15;;;555.60;;
47381;SDS011;33128;51.580;5.170;2023-04-25T00:57:14;611.08;;;553.30;;
47381;SDS011;33128;51.580;5.170;2023-04-25T00:59:40;524.30;;;468.60;;
47381;SDS011;33128;51.580;5.170;2023-04-25T01:02:10;592.88;;;536.22;;
47381;SDS011;33128;51.580;5.170;2023-04-25T01:04:35;600.05;;;543.00;;
47381;SDS011;33128;51.580;5.170;2023-04-25T01:07:01;604.40;;;547.30;;
47381;SDS011;33128;51.580;5.170;2023-04-25T01:09:30;604.38;;;547.40;;
47381;SDS011;33128;51.580;5.170;2023-04-25T01:11:56;570.95;;;514.03;;
47381;SDS011;33128;51.580;5.170;2023-04-25T01:14:22;619.15;;;561.00;;
47381;SDS011;33128;51.580;5.170;2023-04-25T01:16:48;605.58;;;548.30;;
47381;SDS011;33128;51.580;5.170;2023-04-25T01:19:14;555.03;;;497.83;;
47381;SDS011;33128;51.580;5.170;2023-04-25T01:21:43;643.65;;;584.53;;
47381;SDS011;33128;51.580;5.170;2023-04-25T01:24:08;642.67;;;583.92;;
47381;SDS011;33128;51.580;5.170;2023-04-25T01:26:34;530.50;;;474.02;;
47381;SDS011;33128;51.580;5.170;2023-04-25T01:29:00;615.13;;;556.50;;
47381;SDS011;33128;51.580;5.170;2023-04-25T01:31:26;633.42;;;574.47;;
47381;SDS011;33128;51.580;5.170;2023-04-25T01:33:53;724.35;;;660.35;;
47381;SDS011;33128;51.580;5.170;2023-04-25T01:36:18;660.80;;;600.00;;
47381;SDS011;33128;51.580;5.170;2023-04-25T01:38:45;596.83;;;538.85;;
47381;SDS011;33128;51.580;5.170;2023-04-25T01:41:12;661.88;;;601.30;;
47381;SDS011;33128;51.580;5.170;2023-04-25T01:43:39;605.42;;;546.00;;
47381;SDS011;33128;51.580;5.170;2023-04-25T01:46:05;532.35;;;475.70;;
47381;SDS011;33128;51.580;5.170;2023-04-25T01:48:31;668.63;;;608.05;;
47381;SDS011;33128;51.580;5.170;2023-04-25T01:50:56;637.00;;;578.25;;
47381;SDS011;33128;51.580;5.170;2023-04-25T01:53:22;644.22;;;584.65;;
47381;SDS011;33128;51.580;5.170;2023-04-25T01:55:49;629.30;;;570.95;;
47381;SDS011;33128;51.580;5.170;2023-04-25T01:58:15;605.17;;;546.83;;
47381;SDS011;33128;51.580;5.170;2023-04-25T02:00:40;623.45;;;565.20;;
47381;SDS011;33128;51.580;5.170;2023-04-25T02:03:06;628.40;;;569.88;;
47381;SDS011;33128;51.580;5.170;2023-04-25T02:05:36;556.53;;;499.98;;
47381;SDS011;33128;51.580;5.170;2023-04-25T02:08:04;616.95;;;558.88;;
47381;SDS011;33128;51.580;5.170;2023-04-25T02:10:31;624.72;;;566.35;;
47381;SDS011;33128;51.580;5.170;2023-04-25T02:13:00;567.15;;;510.25;;
47381;SDS011;33128;51.580;5.170;2023-04-25T02:15:26;626.85;;;568.63;;
47381;SDS011;33128;51.580;5.170;2023-04-25T02:17:51;547.15;;;490.60;;
47381;SDS011;33128;51.580;5.170;2023-04-25T02:20:21;622.42;;;564.25;;
47381;SDS011;33128;51.580;5.170;2023-04-25T02:22:47;622.88;;;564.63;;
47381;SDS011;33128;51.580;5.170;2023-04-25T02:25:13;619.92;;;561.88;;
47381;SDS011;33128;51.580;5.170;2023-04-25T02:27:38;621.35;;;563.10;;
47381;SDS011;33128;51.580;5.170;2023-04-25T02:30:04;554.55;;;498.15;;
47381;SDS011;33128;51.580;5.170;2023-04-25T02:32:31;616.70;;;558.67;;
47381;SDS011;33128;51.580;5.170;2023-04-25T02:34:57;632.35;;;574.05;;
47381;SDS011;33128;51.580;5.170;2023-04-25T02:37:28;630.80;;;572.13;;
47381;SDS011;33128;51.580;5.170;2023-04-25T02:39:54;620.70;;;562.70;;
47381;SDS011;33128;51.580;5.170;2023-04-25T02:42:20;625.90;;;566.55;;
47381;SDS011;33128;51.580;5.170;2023-04-25T02:44:48;558.22;;;501.92;;
47381;SDS011;33128;51.580;5.170;2023-04-25T02:47:14;647.33;;;587.72;;
47381;SDS011;33128;51.580;5.170;2023-04-25T02:49:40;659.30;;;605.35;;
47381;SDS011;33128;51.580;5.170;2023-04-25T02:52:05;532.38;;;476.00;;
47381;SDS011;33128;51.580;5.170;2023-04-25T02:54:31;647.20;;;587.25;;
47381;SDS011;33128;51.580;5.170;2023-04-25T02:56:57;628.78;;;569.08;;
47381;SDS011;33128;51.580;5.170;2023-04-25T02:59:23;629.95;;;570.75;;
47381;SDS011;33128;51.580;5.170;2023-04-25T03:01:49;642.30;;;582.88;;
47381;SDS011;33128;51.580;5.170;2023-04-25T03:04:15;561.97;;;504.65;;
47381;SDS011;33128;51.580;5.170;2023-04-25T03:06:40;637.38;;;578.17;;
47381;SDS011;33128;51.580;5.170;2023-04-25T03:09:06;628.88;;;570.53;;
47381;SDS011;33128;51.580;5.170;2023-04-25T03:11:32;634.75;;;575.75;;
47381;SDS011;33128;51.580;5.170;2023-04-25T03:13:57;613.63;;;555.88;;
47381;SDS011;33128;51.580;5.170;2023-04-25T03:16:23;638.45;;;579.25;;
47381;SDS011;33128;51.580;5.170;2023-04-25T03:18:49;625.42;;;567.20;;
47381;SDS011;33128;51.580;5.170;2023-04-25T03:21:15;601.53;;;544.17;;
47381;SDS011;33128;51.580;5.170;2023-04-25T03:23:41;582.80;;;525.20;;
47381;SDS011;33128;51.580;5.170;2023-04-25T03:26:07;613.42;;;555.42;;
47381;SDS011;33128;51.580;5.170;2023-04-25T03:28:32;575.70;;;518.13;;
47381;SDS011;33128;51.580;5.170;2023-04-25T03:30:58;544.47;;;488.45;;
47381;SDS011;33128;51.580;5.170;2023-04-25T03:33:23;621.63;;;563.00;;
47381;SDS011;33128;51.580;5.170;2023-04-25T03:35:49;604.17;;;546.08;;
47381;SDS011;33128;51.580;5.170;2023-04-25T03:38:15;621.58;;;562.33;;
47381;SDS011;33128;51.580;5.170;2023-04-25T03:40:43;616.22;;;557.85;;
47381;SDS011;33128;51.580;5.170;2023-04-25T03:43:09;573.42;;;515.90;;
47381;SDS011;33128;51.580;5.170;2023-04-25T03:45:35;553.17;;;496.30;;
47381;SDS011;33128;51.580;5.170;2023-04-25T03:48:00;612.67;;;554.63;;
47381;SDS011;33128;51.580;5.170;2023-04-25T03:50:29;582.05;;;524.72;;
47381;SDS011;33128;51.580;5.170;2023-04-25T03:52:57;636.40;;;578.15;;
47381;SDS011;33128;51.580;5.170;2023-04-25T03:55:23;647.17;;;586.40;;
47381;SDS011;33128;51.580;5.170;2023-04-25T03:57:48;567.65;;;510.15;;
47381;SDS011;33128;51.580;5.170;2023-04-25T04:00:14;293.20;;;275.20;;
47381;SDS011;33128;51.580;5.170;2023-04-25T04:02:40;17.75;;;16.73;;
47381;SDS011;33128;51.580;5.170;2023-04-25T04:05:05;603.45;;;545.03;;
47381;SDS011;33128;51.580;5.170;2023-04-25T04:07:31;139.60;;;126.38;;
47381;SDS011;33128;51.580;5.170;2023-04-25T04:10:01;683.50;;;619.80;;
47381;SDS011;33128;51.580;5.170;2023-04-25T04:12:26;672.90;;;608.63;;
47381;SDS011;33128;51.580;5.170;2023-04-25T04:14:52;550.45;;;492.27;;
47381;SDS011;33128;51.580;5.170;2023-04-25T04:17:17;664.55;;;600.15;;
47381;SDS011;33128;51.580;5.170;2023-04-25T04:19:43;705.90;;;638.97;;
47381;SDS011;33128;51.580;5.170;2023-04-25T04:22:09;693.63;;;627.92;;
47381;SDS011;33128;51.580;5.170;2023-04-25T04:24:35;689.65;;;624.42;;
47381;SDS011;33128;51.580;5.170;2023-04-25T04:27:00;666.42;;;602.42;;
47381;SDS011;33128;51.580;5.170;2023-04-25T04:29:26;638.05;;;575.78;;
47381;SDS011;33128;51.580;5.170;2023-04-25T04:31:52;601.10;;;541.42;;
47381;SDS011;33128;51.580;5.170;2023-04-25T04:34:20;675.35;;;610.78;;
47381;SDS011;33128;51.580;5.170;2023-04-25T04:36:52;616.13;;;555.47;;
47381;SDS011;33128;51.580;5.170;2023-04-25T04:39:17;681.45;;;616.03;;
47381;SDS011;33128;51.580;5.170;2023-04-25T04:41:43;656.97;;;593.45;;
47381;SDS011;33128;51.580;5.170;2023-04-25T04:44:09;583.92;;;524.92;;
47381;SDS011;33128;51.580;5.170;2023-04-25T04:46:35;661.58;;;598.38;;
47381;SDS011;33128;51.580;5.170;2023-04-25T04:49:07;628.92;;;567.63;;
47381;SDS011;33128;51.580;5.170;2023-04-25T04:51:33;692.28;;;626.60;;
47381;SDS011;33128;51.580;5.170;2023-04-25T04:53:59;687.08;;;622.25;;
47381;SDS011;33128;51.580;5.170;2023-04-25T04:56:27;707.00;;;641.88;;
47381;SDS011;33128;51.580;5.170;2023-04-25T04:58:55;707.53;;;643.58;;
47381;SDS011;33128;51.580;5.170;2023-04-25T05:01:21;627.70;;;566.47;;
47381;SDS011;33128;51.580;5.170;2023-04-25T05:03:47;595.13;;;534.25;;
47381;SDS011;33128;51.580;5.170;2023-04-25T05:06:13;687.17;;;623.10;;
47381;SDS011;33128;51.580;5.170;2023-04-25T05:08:38;683.92;;;620.28;;
47381;SDS011;33128;51.580;5.170;2023-04-25T05:11:04;705.55;;;639.72;;
47381;SDS011;33128;51.580;5.170;2023-04-25T05:13:30;704.53;;;638.20;;
47381;SDS011;33128;51.580;5.170;2023-04-25T05:15:56;655.38;;;591.88;;
47381;SDS011;33128;51.580;5.170;2023-04-25T05:18:21;696.45;;;631.60;;
47381;SDS011;33128;51.580;5.170;2023-04-25T05:20:47;698.78;;;634.53;;
47381;SDS011;33128;51.580;5.170;2023-04-25T05:23:12;626.33;;;564.35;;
47381;SDS011;33128;51.580;5.170;2023-04-25T05:25:38;684.80;;;621.53;;
47381;SDS011;33128;51.580;5.170;2023-04-25T05:28:04;650.60;;;588.45;;
47381;SDS011;33128;51.580;5.170;2023-04-25T05:30:30;616.63;;;555.75;;
47381;SDS011;33128;51.580;5.170;2023-04-25T05:32:56;686.42;;;623.25;;
47381;SDS011;33128;51.580;5.170;2023-04-25T05:35:21;638.42;;;576.05;;
47381;SDS011;33128;51.580;5.170;2023-04-25T05:37:47;696.40;;;631.53;;
47381;SDS011;33128;51.580;5.170;2023-04-25T05:40:12;685.25;;;620.97;;
47381;SDS011;33128;51.580;5.170;2023-04-25T05:42:39;661.97;;;599.60;;
47381;SDS011;33128;51.580;5.170;2023-04-25T05:45:04;700.03;;;635.53;;
47381;SDS011;33128;51.580;5.170;2023-04-25T05:47:30;693.03;;;628.88;;
47381;SDS011;33128;51.580;5.170;2023-04-25T05:49:56;636.75;;;575.17;;
47381;SDS011;33128;51.580;5.170;2023-04-25T05:52:21;717.47;;;650.97;;
47381;SDS011;33128;51.580;5.170;2023-04-25T05:54:47;725.10;;;658.33;;
47381;SDS011;33128;51.580;5.170;2023-04-25T05:57:22;714.67;;;648.65;;
47381;SDS011;33128;51.580;5.170;2023-04-25T05:59:50;603.60;;;543.33;;
47381;SDS011;33128;51.580;5.170;2023-04-25T06:02:16;609.25;;;548.70;;
47381;SDS011;33128;51.580;5.170;2023-04-25T06:04:43;715.70;;;649.63;;
47381;SDS011;33128;51.580;5.170;2023-04-25T06:07:09;710.72;;;645.95;;
47381;SDS011;33128;51.580;5.170;2023-04-25T06:09:35;683.10;;;620.45;;
47381;SDS011;33128;51.580;5.170;2023-04-25T06:12:00;706.15;;;641.85;;
47381;SDS011;33128;51.580;5.170;2023-04-25T06:14:26;656.60;;;593.58;;
47381;SDS011;33128;51.580;5.170;2023-04-25T06:16:52;726.40;;;660.38;;
47381;SDS011;33128;51.580;5.170;2023-04-25T06:19:18;724.80;;;659.47;;
47381;SDS011;33128;51.580;5.170;2023-04-25T06:21:43;631.03;;;568.28;;
47381;SDS011;33128;51.580;5.170;2023-04-25T06:24:09;730.45;;;664.30;;
47381;SDS011;33128;51.580;5.170;2023-04-25T06:26:35;731.35;;;665.13;;
47381;SDS011;33128;51.580;5.170;2023-04-25T06:29:01;726.70;;;662.45;;
47381;SDS011;33128;51.580;5.170;2023-04-25T06:31:26;745.00;;;679.80;;
47381;SDS011;33128;51.580;5.170;2023-04-25T06:33:56;735.38;;;669.80;;
47381;SDS011;33128;51.580;5.170;2023-04-25T06:36:22;751.10;;;685.45;;
47381;SDS011;33128;51.580;5.170;2023-04-25T06:38:52;742.25;;;676.33;;
47381;SDS011;33128;51.580;5.170;2023-04-25T06:41:19;691.45;;;627.80;;
47381;SDS011;33128;51.580;5.170;2023-04-25T06:43:45;725.33;;;660.67;;
47381;SDS011;33128;51.580;5.170;2023-04-25T06:46:11;730.03;;;664.47;;
47381;SDS011;33128;51.580;5.170;2023-04-25T06:48:37;724.70;;;659.42;;
47381;SDS011;33128;51.580;5.170;2023-04-25T06:51:03;707.38;;;642.85;;
47381;SDS011;33128;51.580;5.170;2023-04-25T06:53:29;732.55;;;669.20;;
47381;SDS011;33128;51.580;5.170;2023-04-25T06:55:54;607.28;;;546.88;;
47381;SDS011;33128;51.580;5.170;2023-04-25T06:58:20;741.55;;;679.20;;
47381;SDS011;33128;51.580;5.170;2023-04-25T07:00:45;631.53;;;571.00;;
47381;SDS011;33128;51.580;5.170;2023-04-25T07:03:11;652.22;;;589.00;;
47381;SDS011;33128;51.580;5.170;2023-04-25T07:05:37;732.15;;;667.08;;
47381;SDS011;33128;51.580;5.170;2023-04-25T07:08:02;577.22;;;517.67;;
47381;SDS011;33128;51.580;5.170;2023-04-25T07:10:28;761.10;;;695.67;;
47381;SDS011;33128;51.580;5.170;2023-04-25T07:12:54;600.47;;;540.25;;
47381;SDS011;33128;51.580;5.170;2023-04-25T07:15:20;606.28;;;546.53;;
47381;SDS011;33128;51.580;5.170;2023-04-25T07:17:50;651.20;;;592.03;;
47381;SDS011;33128;51.580;5.170;2023-04-25T07:20:16;586.17;;;528.00;;
47381;SDS011;33128;51.580;5.170;2023-04-25T07:22:42;663.00;;;602.60;;
47381;SDS011;33128;51.580;5.170;2023-04-25T07:25:10;672.00;;;611.20;;
47381;SDS011;33128;51.580;5.170;2023-04-25T07:27:36;112.17;;;107.30;;
47381;SDS011;33128;51.580;5.170;2023-04-25T07:30:02;114.30;;;109.60;;
47381;SDS011;33128;51.580;5.170;2023-04-25T07:32:31;144.38;;;138.65;;
47381;SDS011;33128;51.580;5.170;2023-04-25T07:34:57;91.75;;;87.90;;
47381;SDS011;33128;51.580;5.170;2023-04-25T07:37:22;138.00;;;59.08;;
47381;SDS011;33128;51.580;5.170;2023-04-25T07:39:48;137.32;;;57.10;;
47381;SDS011;33128;51.580;5.170;2023-04-25T07:42:14;68.85;;;40.22;;
47381;SDS011;33128;51.580;5.170;2023-04-25T07:44:41;119.90;;;48.58;;
47381;SDS011;33128;51.580;5.170;2023-04-25T07:47:07;120.32;;;49.70;;
47381;SDS011;33128;51.580;5.170;2023-04-25T07:49:34;97.78;;;46.22;;
47381;SDS011;33128;51.580;5.170;2023-04-25T07:52:02;102.55;;;44.95;;
47381;SDS011;33128;51.580;5.170;2023-04-25T07:54:31;106.18;;;45.60;;
47381;SDS011;33128;51.580;5.170;2023-04-25T07:57:03;61.28;;;40.50;;
47381;SDS011;33128;51.580;5.170;2023-04-25T07:59:31;63.10;;;59.60;;
47381;SDS011;33128;51.580;5.170;2023-04-25T08:01:57;114.95;;;110.13;;
47381;SDS011;33128;51.580;5.170;2023-04-25T08:04:23;131.50;;;125.93;;
47381;SDS011;33128;51.580;5.170;2023-04-25T08:07:02;243.93;;;234.43;;
47381;SDS011;33128;51.580;5.170;2023-04-25T08:09:28;196.02;;;188.00;;
47381;SDS011;33128;51.580;5.170;2023-04-25T08:11:54;279.25;;;268.02;;
47381;SDS011;33128;51.580;5.170;2023-04-25T08:14:20;325.52;;;312.33;;
47381;SDS011;33128;51.580;5.170;2023-04-25T08:16:45;255.60;;;245.88;;
47381;SDS011;33128;51.580;5.170;2023-04-25T08:19:11;252.02;;;242.30;;
47381;SDS011;33128;51.580;5.170;2023-04-25T08:21:37;273.10;;;262.55;;
47381;SDS011;33128;51.580;5.170;2023-04-25T08:24:02;310.15;;;298.10;;
47381;SDS011;33128;51.580;5.170;2023-04-25T08:26:29;315.77;;;303.15;;
47381;SDS011;33128;51.580;5.170;2023-04-25T08:28:55;295.50;;;283.98;;
47381;SDS011;33128;51.580;5.170;2023-04-25T08:31:21;291.92;;;279.80;;
47381;SDS011;33128;51.580;5.170;2023-04-25T08:33:48;330.83;;;317.95;;
47381;SDS011;33128;51.580;5.170;2023-04-25T08:36:16;314.45;;;302.05;;
47381;SDS011;33128;51.580;5.170;2023-04-25T08:38:42;300.63;;;288.73;;
47381;SDS011;33128;51.580;5.170;2023-04-25T08:41:08;342.67;;;329.02;;
47381;SDS011;33128;51.580;5.170;2023-04-25T08:43:36;334.58;;;321.23;;
47381;SDS011;33128;51.580;5.170;2023-04-25T08:46:04;310.58;;;298.42;;
47381;SDS011;33128;51.580;5.170;2023-04-25T08:48:32;301.85;;;289.67;;
47381;SDS011;33128;51.580;5.170;2023-04-25T08:51:00;351.33;;;337.27;;
47381;SDS011;33128;51.580;5.170;2023-04-25T08:53:29;361.70;;;347.02;;
47381;SDS011;33128;51.580;5.170;2023-04-25T08:55:57;332.15;;;318.80;;
47381;SDS011;33128;51.580;5.170;2023-04-25T08:58:23;368.77;;;353.33;;
47381;SDS011;33128;51.580;5.170;2023-04-25T09:00:50;361.42;;;347.20;;
47381;SDS011;33128;51.580;5.170;2023-04-25T09:03:17;363.52;;;348.80;;
47381;SDS011;33128;51.580;5.170;2023-04-25T09:05:42;354.27;;;340.27;;
47381;SDS011;33128;51.580;5.170;2023-04-25T09:08:08;357.50;;;343.60;;
47381;SDS011;33128;51.580;5.170;2023-04-25T09:10:35;356.38;;;342.27;;
47381;SDS011;33128;51.580;5.170;2023-04-25T09:13:09;364.02;;;349.60;;
47381;SDS011;33128;51.580;5.170;2023-04-25T09:18:24;314.50;;;301.85;;
47381;SDS011;33128;51.580;5.170;2023-04-25T09:20:54;320.95;;;308.33;;
47381;SDS011;33128;51.580;5.170;2023-04-25T09:23:21;364.42;;;350.00;;
47381;SDS011;33128;51.580;5.170;2023-04-25T09:25:48;372.30;;;357.63;;
47381;SDS011;33128;51.580;5.170;2023-04-25T09:28:17;371.77;;;356.75;;
47381;SDS011;33128;51.580;5.170;2023-04-25T09:30:49;363.75;;;349.35;;
47381;SDS011;33128;51.580;5.170;2023-04-25T09:33:19;367.85;;;353.13;;
47381;SDS011;33128;51.580;5.170;2023-04-25T09:35:46;290.27;;;278.95;;
47381;SDS011;33128;51.580;5.170;2023-04-25T09:38:20;348.23;;;334.15;;
47381;SDS011;33128;51.580;5.170;2023-04-25T09:40:47;361.80;;;347.55;;
47381;SDS011;33128;51.580;5.170;2023-04-25T09:45:45;357.80;;;343.67;;
47381;SDS011;33128;51.580;5.170;2023-04-25T09:48:16;350.77;;;336.95;;
47381;SDS011;33128;51.580;5.170;2023-04-25T09:50:43;409.75;;;393.00;;
47381;SDS011;33128;51.580;5.170;2023-04-25T09:53:12;373.20;;;358.35;;
47381;SDS011;33128;51.580;5.170;2023-04-25T09:55:37;365.20;;;350.73;;
47381;SDS011;33128;51.580;5.170;2023-04-25T09:58:05;370.10;;;355.38;;
47381;SDS011;33128;51.580;5.170;2023-04-25T10:00:33;362.35;;;347.75;;
47381;SDS011;33128;51.580;5.170;2023-04-25T10:03:03;370.58;;;355.67;;
47381;SDS011;33128;51.580;5.170;2023-04-25T10:05:30;355.98;;;341.42;;
47381;SDS011;33128;51.580;5.170;2023-04-25T10:08:01;372.20;;;357.40;;
47381;SDS011;33128;51.580;5.170;2023-04-25T10:10:29;337.20;;;323.60;;
47381;SDS011;33128;51.580;5.170;2023-04-25T10:13:06;277.63;;;266.77;;
47381;SDS011;33128;51.580;5.170;2023-04-25T10:15:34;375.55;;;360.88;;
47381;SDS011;33128;51.580;5.170;2023-04-25T10:18:01;351.85;;;338.15;;
47381;SDS011;33128;51.580;5.170;2023-04-25T10:20:27;371.70;;;356.77;;
47381;SDS011;33128;51.580;5.170;2023-04-25T10:22:55;334.27;;;320.75;;
47381;SDS011;33128;51.580;5.170;2023-04-25T10:25:38;370.83;;;356.17;;
47381;SDS011;33128;51.580;5.170;2023-04-25T10:28:05;382.90;;;367.80;;
47381;SDS011;33128;51.580;5.170;2023-04-25T10:30:34;380.85;;;365.73;;
47381;SDS011;33128;51.580;5.170;2023-04-25T10:33:00;328.90;;;316.00;;
47381;SDS011;33128;51.580;5.170;2023-04-25T10:35:27;361.38;;;346.83;;
47381;SDS011;33128;51.580;5.170;2023-04-25T10:38:02;372.40;;;357.77;;
47381;SDS011;33128;51.580;5.170;2023-04-25T10:40:35;320.25;;;307.33;;
47381;SDS011;33128;51.580;5.170;2023-04-25T10:45:54;147.52;;;141.70;;
47381;SDS011;33128;51.580;5.170;2023-04-25T10:48:26;111.63;;;106.75;;
47381;SDS011;33128;51.580;5.170;2023-04-25T10:51:11;193.52;;;186.10;;
47381;SDS011;33128;51.580;5.170;2023-04-25T10:53:41;166.60;;;160.15;;
47381;SDS011;33128;51.580;5.170;2023-04-25T10:56:16;142.60;;;136.75;;
47381;SDS011;33128;51.580;5.170;2023-04-25T10:58:44;149.65;;;143.70;;
47381;SDS011;33128;51.580;5.170;2023-04-25T11:01:11;118.47;;;113.65;;
47381;SDS011;33128;51.580;5.170;2023-04-25T11:03:39;145.55;;;139.70;;
47381;SDS011;33128;51.580;5.170;2023-04-25T11:06:08;145.60;;;139.75;;
47381;SDS011;33128;51.580;5.170;2023-04-25T11:08:50;139.25;;;133.75;;
47381;SDS011;33128;51.580;5.170;2023-04-25T11:11:17;182.20;;;174.98;;
47381;SDS011;33128;51.580;5.170;2023-04-25T11:13:43;200.32;;;192.82;;
47381;SDS011;33128;51.580;5.170;2023-04-25T11:16:13;159.25;;;153.07;;
47381;SDS011;33128;51.580;5.170;2023-04-25T11:18:40;100.57;;;96.50;;
47381;SDS011;33128;51.580;5.170;2023-04-25T11:21:11;95.30;;;91.25;;
47381;SDS011;33128;51.580;5.170;2023-04-25T11:23:38;140.68;;;134.43;;
47381;SDS011;33128;51.580;5.170;2023-04-25T11:26:04;155.23;;;149.23;;
47381;SDS011;33128;51.580;5.170;2023-04-25T11:28:29;161.88;;;155.55;;
47381;SDS011;33128;51.580;5.170;2023-04-25T11:30:55;181.75;;;174.93;;
47381;SDS011;33128;51.580;5.170;2023-04-25T11:33:24;181.65;;;174.05;;
47381;SDS011;33128;51.580;5.170;2023-04-25T11:35:55;201.55;;;193.98;;
47381;SDS011;33128;51.580;5.170;2023-04-25T11:38:24;199.35;;;191.65;;
47381;SDS011;33128;51.580;5.170;2023-04-25T11:40:51;196.35;;;189.00;;
47381;SDS011;33128;51.580;5.170;2023-04-25T11:43:17;219.57;;;211.02;;
47381;SDS011;33128;51.580;5.170;2023-04-25T11:45:46;174.25;;;167.25;;
47381;SDS011;33128;51.580;5.170;2023-04-25T11:48:13;223.32;;;214.88;;
47381;SDS011;33128;51.580;5.170;2023-04-25T11:50:39;137.00;;;131.50;;
47381;SDS011;33128;51.580;5.170;2023-04-25T11:53:05;96.78;;;92.78;;
47381;SDS011;33128;51.580;5.170;2023-04-25T11:55:32;104.93;;;100.53;;
47381;SDS011;33128;51.580;5.170;2023-04-25T11:58:01;105.68;;;101.28;;
47381;SDS011;33128;51.580;5.170;2023-04-25T12:00:28;120.63;;;115.55;;
47381;SDS011;33128;51.580;5.170;2023-04-25T12:02:54;160.57;;;154.18;;
47381;SDS011;33128;51.580;5.170;2023-04-25T12:05:26;142.82;;;136.88;;
47381;SDS011;33128;51.580;5.170;2023-04-25T12:07:58;139.77;;;134.10;;
47381;SDS011;33128;51.580;5.170;2023-04-25T12:10:36;133.45;;;128.10;;
47381;SDS011;33128;51.580;5.170;2023-04-25T12:13:17;151.10;;;144.90;;
47381;SDS011;33128;51.580;5.170;2023-04-25T12:15:48;153.25;;;147.27;;
47381;SDS011;33128;51.580;5.170;2023-04-25T12:18:14;164.80;;;158.18;;
47381;SDS011;33128;51.580;5.170;2023-04-25T12:20:43;87.97;;;84.32;;
47381;SDS011;33128;51.580;5.170;2023-04-25T12:23:10;86.15;;;82.55;;
47381;SDS011;33128;51.580;5.170;2023-04-25T12:25:38;68.20;;;64.90;;
47381;SDS011;33128;51.580;5.170;2023-04-25T12:28:15;212.05;;;204.13;;
47381;SDS011;33128;51.580;5.170;2023-04-25T12:33:43;213.82;;;205.77;;
47381;SDS011;33128;51.580;5.170;2023-04-25T12:36:12;202.55;;;194.77;;
47381;SDS011;33128;51.580;5.170;2023-04-25T12:38:39;233.15;;;224.43;;
47381;SDS011;33128;51.580;5.170;2023-04-25T12:41:06;195.95;;;188.52;;
47381;SDS011;33128;51.580;5.170;2023-04-25T12:43:32;231.02;;;221.90;;
47381;SDS011;33128;51.580;5.170;2023-04-25T12:45:58;246.98;;;238.10;;
47381;SDS011;33128;51.580;5.170;2023-04-25T12:48:24;185.43;;;177.88;;
47381;SDS011;33128;51.580;5.170;2023-04-25T12:50:50;123.93;;;118.93;;
47381;SDS011;33128;51.580;5.170;2023-04-25T12:53:20;43.97;;;41.50;;
47381;SDS011;33128;51.580;5.170;2023-04-25T12:55:47;32.45;;;30.95;;
47381;SDS011;33128;51.580;5.170;2023-04-25T12:58:16;45.75;;;42.17;;
47381;SDS011;33128;51.580;5.170;2023-04-25T13:00:45;86.03;;;82.47;;
47381;SDS011;33128;51.580;5.170;2023-04-25T13:03:12;161.88;;;155.40;;
47381;SDS011;33128;51.580;5.170;2023-04-25T13:05:37;131.85;;;126.43;;
47381;SDS011;33128;51.580;5.170;2023-04-25T13:08:03;113.72;;;109.00;;
47381;SDS011;33128;51.580;5.170;2023-04-25T13:10:29;138.35;;;132.68;;
47381;SDS011;33128;51.580;5.170;2023-04-25T13:12:55;138.23;;;132.68;;
47381;SDS011;33128;51.580;5.170;2023-04-25T13:15:23;111.60;;;106.70;;
47381;SDS011;33128;51.580;5.170;2023-04-25T13:17:52;110.53;;;105.97;;
47381;SDS011;33128;51.580;5.170;2023-04-25T13:20:17;124.22;;;119.18;;
47381;SDS011;33128;51.580;5.170;2023-04-25T13:22:47;66.75;;;63.92;;
47381;SDS011;33128;51.580;5.170;2023-04-25T13:25:13;59.35;;;56.55;;
47381;SDS011;33128;51.580;5.170;2023-04-25T13:27:38;72.32;;;69.22;;
47381;SDS011;33128;51.580;5.170;2023-04-25T13:30:05;59.63;;;57.03;;
47381;SDS011;33128;51.580;5.170;2023-04-25T13:32:34;74.47;;;71.22;;
47381;SDS011;33128;51.580;5.170;2023-04-25T13:35:01;100.07;;;95.85;;
47381;SDS011;33128;51.580;5.170;2023-04-25T13:37:35;99.15;;;95.05;;
47381;SDS011;33128;51.580;5.170;2023-04-25T13:40:02;102.50;;;98.25;;
47381;SDS011;33128;51.580;5.170;2023-04-25T13:42:30;182.63;;;175.07;;
47381;SDS011;33128;51.580;5.170;2023-04-25T13:44:56;195.15;;;187.80;;
47381;SDS011;33128;51.580;5.170;2023-04-25T13:47:22;185.32;;;177.93;;
47381;SDS011;33128;51.580;5.170;2023-04-25T13:49:49;162.93;;;156.73;;
47381;SDS011;33128;51.580;5.170;2023-04-25T13:52:15;72.65;;;69.45;;
47381;SDS011;33128;51.580;5.170;2023-04-25T13:54:40;66.45;;;63.63;;
47381;SDS011;33128;51.580;5.170;2023-04-25T13:57:08;53.38;;;50.97;;
47381;SDS011;33128;51.580;5.170;2023-04-25T13:59:36;42.80;;;40.40;;
47381;SDS011;33128;51.580;5.170;2023-04-25T14:02:01;135.05;;;60.63;;
47381;SDS011;33128;51.580;5.170;2023-04-25T14:04:27;105.20;;;53.03;;
47381;SDS011;33128;51.580;5.170;2023-04-25T14:06:53;42.45;;;37.33;;
47381;SDS011;33128;51.580;5.170;2023-04-25T14:09:19;79.70;;;76.13;;